sensor_id;sensor_type;location;lat;lon;timestamp;P1;durP1;ratioP1;P2;durP2;ratioP2
49972;SDS011;65693;49.798;10.968;2023-04-01T00:01:33;2.50;;;0.93;;
49972;SDS011;65693;49.798;10.968;2023-04-01T00:04:00;1.23;;;0.70;;
49972;SDS011;65693;49.798;10.968;2023-04-01T00:06:27;2.10;;;0.70;;
49972;SDS011;65693;49.798;10.968;2023-04-01T00:08:53;0.88;;;0.63;;
49972;SDS011;65693;49.798;10.968;2023-04-01T00:11:20;1.33;;;0.80;;
49972;SDS011;65693;49.798;10.968;2023-04-01T00:13:46;1.50;;;0.80;;
49972;SDS011;65693;49.798;10.968;2023-04-01T00:16:14;2.15;;;1.10;;
49972;SDS011;65693;49.798;10.968;2023-04-01T00:18:41;2.88;;;1.08;;
49972;SDS011;65693;49.798;10.968;2023-04-01T00:21:07;1.38;;;0.80;;
49972;SDS011;65693;49.798;10.968;2023-04-01T00:23:34;1.52;;;0.75;;
49972;SDS011;65693;49.798;10.968;2023-04-01T00:26:01;1.50;;;0.80;;
49972;SDS011;65693;49.798;10.968;2023-04-01T00:28:28;1.52;;;0.77;;
49972;SDS011;65693;49.798;10.968;2023-04-01T00:30:55;2.03;;;0.80;;
49972;SDS011;65693;49.798;10.968;2023-04-01T00:33:23;2.60;;;0.80;;
49972;SDS011;65693;49.798;10.968;2023-04-01T00:35:49;1.02;;;0.50;;
49972;SDS011;65693;49.798;10.968;2023-04-01T00:38:16;1.45;;;0.77;;
49972;SDS011;65693;49.798;10.968;2023-04-01T00:40:44;1.95;;;0.82;;
49972;SDS011;65693;49.798;10.968;2023-04-01T00:43:12;1.13;;;0.80;;
49972;SDS011;65693;49.798;10.968;2023-04-01T00:45:40;2.03;;;0.90;;
49972;SDS011;65693;49.798;10.968;2023-04-01T00:48:09;1.95;;;1.02;;
49972;SDS011;65693;49.798;10.968;2023-04-01T00:50:40;2.38;;;0.93;;
49972;SDS011;65693;49.798;10.968;2023-04-01T00:53:09;0.93;;;0.68;;
49972;SDS011;65693;49.798;10.968;2023-04-01T00:55:37;1.92;;;0.70;;
49972;SDS011;65693;49.798;10.968;2023-04-01T00:58:09;1.48;;;0.80;;
49972;SDS011;65693;49.798;10.968;2023-04-01T01:00:41;1.90;;;0.80;;
49972;SDS011;65693;49.798;10.968;2023-04-01T01:03:08;1.52;;;0.70;;
49972;SDS011;65693;49.798;10.968;2023-04-01T01:05:38;1.65;;;0.82;;
49972;SDS011;65693;49.798;10.968;2023-04-01T01:08:15;2.67;;;0.90;;
49972;SDS011;65693;49.798;10.968;2023-04-01T01:10:49;1.80;;;0.90;;
49972;SDS011;65693;49.798;10.968;2023-04-01T01:13:17;2.42;;;0.90;;
49972;SDS011;65693;49.798;10.968;2023-04-01T01:15:49;1.10;;;0.70;;
49972;SDS011;65693;49.798;10.968;2023-04-01T01:18:25;1.73;;;0.80;;
49972;SDS011;65693;49.798;10.968;2023-04-01T01:21:23;2.20;;;0.90;;
49972;SDS011;65693;49.798;10.968;2023-04-01T01:24:07;2.20;;;0.93;;
49972;SDS011;65693;49.798;10.968;2023-04-01T01:26:54;2.33;;;0.80;;
49972;SDS011;65693;49.798;10.968;2023-04-01T01:32:38;1.98;;;0.98;;
49972;SDS011;65693;49.798;10.968;2023-04-01T01:35:38;1.77;;;0.90;;
49972;SDS011;65693;49.798;10.968;2023-04-01T01:38:10;1.92;;;1.35;;
49972;SDS011;65693;49.798;10.968;2023-04-01T01:40:40;0.88;;;0.80;;
49972;SDS011;65693;49.798;10.968;2023-04-01T01:43:10;2.67;;;0.90;;
49972;SDS011;65693;49.798;10.968;2023-04-01T01:45:45;2.22;;;0.90;;
49972;SDS011;65693;49.798;10.968;2023-04-01T01:48:15;1.42;;;0.90;;
49972;SDS011;65693;49.798;10.968;2023-04-01T01:50:44;1.25;;;0.80;;
49972;SDS011;65693;49.798;10.968;2023-04-01T01:53:12;1.42;;;0.80;;
49972;SDS011;65693;49.798;10.968;2023-04-01T01:55:40;2.22;;;0.98;;
49972;SDS011;65693;49.798;10.968;2023-04-01T01:58:09;1.05;;;0.73;;
49972;SDS011;65693;49.798;10.968;2023-04-01T02:00:40;1.23;;;0.68;;
49972;SDS011;65693;49.798;10.968;2023-04-01T02:03:09;1.55;;;0.88;;
49972;SDS011;65693;49.798;10.968;2023-04-01T02:05:38;2.15;;;0.82;;
49972;SDS011;65693;49.798;10.968;2023-04-01T02:08:07;1.40;;;0.80;;
49972;SDS011;65693;49.798;10.968;2023-04-01T02:10:39;1.55;;;0.77;;
49972;SDS011;65693;49.798;10.968;2023-04-01T02:13:10;2.58;;;1.00;;
49972;SDS011;65693;49.798;10.968;2023-04-01T02:15:42;0.70;;;0.70;;
49972;SDS011;65693;49.798;10.968;2023-04-01T02:18:13;1.90;;;0.80;;
49972;SDS011;65693;49.798;10.968;2023-04-01T02:20:41;2.38;;;0.80;;
49972;SDS011;65693;49.798;10.968;2023-04-01T02:23:11;3.03;;;0.93;;
49972;SDS011;65693;49.798;10.968;2023-04-01T02:25:39;1.08;;;0.73;;
49972;SDS011;65693;49.798;10.968;2023-04-01T02:28:07;1.85;;;0.82;;
49972;SDS011;65693;49.798;10.968;2023-04-01T02:30:37;1.52;;;0.70;;
49972;SDS011;65693;49.798;10.968;2023-04-01T02:33:06;1.90;;;0.90;;
49972;SDS011;65693;49.798;10.968;2023-04-01T02:35:33;1.48;;;0.90;;
49972;SDS011;65693;49.798;10.968;2023-04-01T02:38:01;1.40;;;0.73;;
49972;SDS011;65693;49.798;10.968;2023-04-01T02:40:29;1.55;;;0.80;;
49972;SDS011;65693;49.798;10.968;2023-04-01T02:42:56;1.92;;;0.80;;
49972;SDS011;65693;49.798;10.968;2023-04-01T02:45:23;1.55;;;0.80;;
49972;SDS011;65693;49.798;10.968;2023-04-01T02:47:50;1.05;;;0.80;;
49972;SDS011;65693;49.798;10.968;2023-04-01T02:50:16;1.45;;;0.90;;
49972;SDS011;65693;49.798;10.968;2023-04-01T02:52:43;2.25;;;0.85;;
49972;SDS011;65693;49.798;10.968;2023-04-01T02:55:09;1.45;;;0.80;;
49972;SDS011;65693;49.798;10.968;2023-04-01T02:57:37;1.70;;;0.75;;
49972;SDS011;65693;49.798;10.968;2023-04-01T03:00:04;2.45;;;0.80;;
49972;SDS011;65693;49.798;10.968;2023-04-01T03:02:36;1.20;;;0.63;;
49972;SDS011;65693;49.798;10.968;2023-04-01T03:05:02;1.40;;;0.80;;
49972;SDS011;65693;49.798;10.968;2023-04-01T03:07:30;1.98;;;0.90;;
49972;SDS011;65693;49.798;10.968;2023-04-01T03:09:57;0.90;;;0.70;;
49972;SDS011;65693;49.798;10.968;2023-04-01T03:12:23;1.50;;;0.70;;
49972;SDS011;65693;49.798;10.968;2023-04-01T03:14:51;2.85;;;0.80;;
49972;SDS011;65693;49.798;10.968;2023-04-01T03:17:17;1.00;;;0.60;;
49972;SDS011;65693;49.798;10.968;2023-04-01T03:19:44;1.23;;;0.80;;
49972;SDS011;65693;49.798;10.968;2023-04-01T03:22:10;1.65;;;0.90;;
49972;SDS011;65693;49.798;10.968;2023-04-01T03:24:37;0.98;;;0.70;;
49972;SDS011;65693;49.798;10.968;2023-04-01T03:27:03;1.92;;;0.88;;
49972;SDS011;65693;49.798;10.968;2023-04-01T03:29:30;1.27;;;0.70;;
49972;SDS011;65693;49.798;10.968;2023-04-01T03:31:57;1.27;;;0.70;;
49972;SDS011;65693;49.798;10.968;2023-04-01T03:34:24;0.88;;;0.73;;
49972;SDS011;65693;49.798;10.968;2023-04-01T03:36:51;1.65;;;0.90;;
49972;SDS011;65693;49.798;10.968;2023-04-01T03:39:17;1.15;;;0.90;;
49972;SDS011;65693;49.798;10.968;2023-04-01T03:41:44;1.50;;;0.85;;
49972;SDS011;65693;49.798;10.968;2023-04-01T03:44:10;1.33;;;0.70;;
49972;SDS011;65693;49.798;10.968;2023-04-01T03:46:37;2.28;;;0.85;;
49972;SDS011;65693;49.798;10.968;2023-04-01T03:49:07;1.90;;;1.20;;
49972;SDS011;65693;49.798;10.968;2023-04-01T03:51:36;0.93;;;0.70;;
49972;SDS011;65693;49.798;10.968;2023-04-01T03:54:02;1.55;;;0.80;;
49972;SDS011;65693;49.798;10.968;2023-04-01T03:56:29;1.73;;;0.95;;
49972;SDS011;65693;49.798;10.968;2023-04-01T03:58:56;2.30;;;0.70;;
49972;SDS011;65693;49.798;10.968;2023-04-01T04:01:22;1.02;;;0.70;;
49972;SDS011;65693;49.798;10.968;2023-04-01T04:03:49;1.20;;;0.70;;
49972;SDS011;65693;49.798;10.968;2023-04-01T04:06:17;1.02;;;0.80;;
49972;SDS011;65693;49.798;10.968;2023-04-01T04:08:45;2.22;;;0.70;;
49972;SDS011;65693;49.798;10.968;2023-04-01T04:11:11;1.00;;;0.80;;
49972;SDS011;65693;49.798;10.968;2023-04-01T04:13:38;0.93;;;0.70;;
49972;SDS011;65693;49.798;10.968;2023-04-01T04:16:05;2.63;;;0.80;;
49972;SDS011;65693;49.798;10.968;2023-04-01T04:18:32;1.30;;;0.77;;
49972;SDS011;65693;49.798;10.968;2023-04-01T04:20:59;1.90;;;0.90;;
49972;SDS011;65693;49.798;10.968;2023-04-01T04:23:26;1.55;;;0.70;;
49972;SDS011;65693;49.798;10.968;2023-04-01T04:25:55;1.88;;;0.80;;
49972;SDS011;65693;49.798;10.968;2023-04-01T04:28:24;2.45;;;0.98;;
49972;SDS011;65693;49.798;10.968;2023-04-01T04:30:51;2.65;;;0.75;;
49972;SDS011;65693;49.798;10.968;2023-04-01T04:33:17;1.35;;;0.90;;
49972;SDS011;65693;49.798;10.968;2023-04-01T04:35:44;1.60;;;0.70;;
49972;SDS011;65693;49.798;10.968;2023-04-01T04:38:11;1.17;;;0.80;;
49972;SDS011;65693;49.798;10.968;2023-04-01T04:40:39;2.80;;;1.02;;
49972;SDS011;65693;49.798;10.968;2023-04-01T04:43:06;1.80;;;0.90;;
49972;SDS011;65693;49.798;10.968;2023-04-01T04:45:33;1.38;;;0.82;;
49972;SDS011;65693;49.798;10.968;2023-04-01T04:47:59;2.03;;;0.80;;
49972;SDS011;65693;49.798;10.968;2023-04-01T04:50:25;1.15;;;0.80;;
49972;SDS011;65693;49.798;10.968;2023-04-01T04:52:52;2.20;;;1.08;;
49972;SDS011;65693;49.798;10.968;2023-04-01T04:55:18;1.98;;;0.95;;
49972;SDS011;65693;49.798;10.968;2023-04-01T04:57:46;0.93;;;0.73;;
49972;SDS011;65693;49.798;10.968;2023-04-01T05:00:13;1.63;;;0.80;;
49972;SDS011;65693;49.798;10.968;2023-04-01T05:02:39;2.08;;;0.80;;
49972;SDS011;65693;49.798;10.968;2023-04-01T05:05:06;2.15;;;0.98;;
49972;SDS011;65693;49.798;10.968;2023-04-01T05:07:33;1.80;;;0.90;;
49972;SDS011;65693;49.798;10.968;2023-04-01T05:10:00;2.25;;;0.75;;
49972;SDS011;65693;49.798;10.968;2023-04-01T05:12:26;1.15;;;0.90;;
49972;SDS011;65693;49.798;10.968;2023-04-01T05:14:54;1.70;;;0.90;;
49972;SDS011;65693;49.798;10.968;2023-04-01T05:17:20;1.88;;;0.88;;
49972;SDS011;65693;49.798;10.968;2023-04-01T05:19:47;2.30;;;0.80;;
49972;SDS011;65693;49.798;10.968;2023-04-01T05:22:13;1.67;;;0.88;;
49972;SDS011;65693;49.798;10.968;2023-04-01T05:24:39;2.53;;;0.90;;
49972;SDS011;65693;49.798;10.968;2023-04-01T05:27:06;1.77;;;1.00;;
49972;SDS011;65693;49.798;10.968;2023-04-01T05:29:32;1.20;;;0.73;;
49972;SDS011;65693;49.798;10.968;2023-04-01T05:32:01;1.67;;;0.90;;
49972;SDS011;65693;49.798;10.968;2023-04-01T05:34:27;2.20;;;0.80;;
49972;SDS011;65693;49.798;10.968;2023-04-01T05:36:54;1.15;;;0.80;;
49972;SDS011;65693;49.798;10.968;2023-04-01T05:39:20;2.40;;;1.00;;
49972;SDS011;65693;49.798;10.968;2023-04-01T05:41:46;2.40;;;1.23;;
49972;SDS011;65693;49.798;10.968;2023-04-01T05:44:13;1.48;;;0.80;;
49972;SDS011;65693;49.798;10.968;2023-04-01T05:46:39;1.75;;;0.80;;
49972;SDS011;65693;49.798;10.968;2023-04-01T05:49:07;3.03;;;1.00;;
49972;SDS011;65693;49.798;10.968;2023-04-01T05:51:34;2.70;;;1.00;;
49972;SDS011;65693;49.798;10.968;2023-04-01T05:54:00;2.08;;;0.90;;
49972;SDS011;65693;49.798;10.968;2023-04-01T05:56:27;1.98;;;0.90;;
49972;SDS011;65693;49.798;10.968;2023-04-01T05:58:53;1.55;;;0.80;;
49972;SDS011;65693;49.798;10.968;2023-04-01T06:01:20;4.03;;;0.88;;
49972;SDS011;65693;49.798;10.968;2023-04-01T06:03:46;2.20;;;1.00;;
49972;SDS011;65693;49.798;10.968;2023-04-01T06:06:15;3.22;;;1.33;;
49972;SDS011;65693;49.798;10.968;2023-04-01T06:08:46;1.90;;;0.80;;
49972;SDS011;65693;49.798;10.968;2023-04-01T06:11:17;3.83;;;1.17;;
49972;SDS011;65693;49.798;10.968;2023-04-01T06:14:04;2.38;;;1.00;;
49972;SDS011;65693;49.798;10.968;2023-04-01T06:16:40;1.15;;;0.75;;
49972;SDS011;65693;49.798;10.968;2023-04-01T06:19:18;1.98;;;1.00;;
49972;SDS011;65693;49.798;10.968;2023-04-01T06:27:44;3.13;;;0.93;;
49972;SDS011;65693;49.798;10.968;2023-04-01T06:30:24;1.17;;;0.65;;
49972;SDS011;65693;49.798;10.968;2023-04-01T06:33:00;3.80;;;1.10;;
49972;SDS011;65693;49.798;10.968;2023-04-01T06:35:40;2.33;;;0.90;;
49972;SDS011;65693;49.798;10.968;2023-04-01T06:38:22;2.30;;;0.95;;
49972;SDS011;65693;49.798;10.968;2023-04-01T06:41:18;2.15;;;0.90;;
49972;SDS011;65693;49.798;10.968;2023-04-01T06:44:09;1.02;;;0.90;;
49972;SDS011;65693;49.798;10.968;2023-04-01T06:46:44;1.83;;;1.00;;
49972;SDS011;65693;49.798;10.968;2023-04-01T06:49:20;1.33;;;0.80;;
49972;SDS011;65693;49.798;10.968;2023-04-01T06:51:55;1.75;;;0.98;;
49972;SDS011;65693;49.798;10.968;2023-04-01T06:54:28;1.10;;;0.80;;
49972;SDS011;65693;49.798;10.968;2023-04-01T06:57:00;5.22;;;2.03;;
49972;SDS011;65693;49.798;10.968;2023-04-01T06:59:32;3.25;;;0.90;;
49972;SDS011;65693;49.798;10.968;2023-04-01T07:02:04;3.95;;;0.90;;
49972;SDS011;65693;49.798;10.968;2023-04-01T07:04:42;1.25;;;0.90;;
49972;SDS011;65693;49.798;10.968;2023-04-01T07:07:14;2.67;;;0.75;;
49972;SDS011;65693;49.798;10.968;2023-04-01T07:09:49;1.13;;;0.70;;
49972;SDS011;65693;49.798;10.968;2023-04-01T07:12:19;2.30;;;0.80;;
49972;SDS011;65693;49.798;10.968;2023-04-01T07:14:54;3.30;;;0.98;;
49972;SDS011;65693;49.798;10.968;2023-04-01T07:17:22;3.60;;;0.85;;
49972;SDS011;65693;49.798;10.968;2023-04-01T07:19:52;1.05;;;0.70;;
49972;SDS011;65693;49.798;10.968;2023-04-01T07:22:26;3.42;;;1.10;;
49972;SDS011;65693;49.798;10.968;2023-04-01T07:25:01;3.63;;;1.13;;
49972;SDS011;65693;49.798;10.968;2023-04-01T07:27:31;2.25;;;1.02;;
49972;SDS011;65693;49.798;10.968;2023-04-01T07:29:58;2.05;;;0.80;;
49972;SDS011;65693;49.798;10.968;2023-04-01T07:32:27;3.28;;;1.02;;
49972;SDS011;65693;49.798;10.968;2023-04-01T07:35:09;2.40;;;0.80;;
49972;SDS011;65693;49.798;10.968;2023-04-01T07:37:46;4.90;;;1.10;;
49972;SDS011;65693;49.798;10.968;2023-04-01T07:40:28;6.18;;;1.10;;
49972;SDS011;65693;49.798;10.968;2023-04-01T07:43:07;3.60;;;0.68;;
49972;SDS011;65693;49.798;10.968;2023-04-01T07:45:46;4.07;;;0.70;;
49972;SDS011;65693;49.798;10.968;2023-04-01T07:48:19;3.35;;;0.70;;
49972;SDS011;65693;49.798;10.968;2023-04-01T07:50:54;4.55;;;0.98;;
49972;SDS011;65693;49.798;10.968;2023-04-01T07:53:29;3.55;;;0.90;;
49972;SDS011;65693;49.798;10.968;2023-04-01T07:56:05;3.83;;;0.95;;
49972;SDS011;65693;49.798;10.968;2023-04-01T07:58:35;22.67;;;2.38;;
49972;SDS011;65693;49.798;10.968;2023-04-01T08:01:11;34.30;;;3.20;;
49972;SDS011;65693;49.798;10.968;2023-04-01T08:03:51;29.27;;;2.45;;
49972;SDS011;65693;49.798;10.968;2023-04-01T08:06:33;15.15;;;1.75;;
49972;SDS011;65693;49.798;10.968;2023-04-01T08:09:07;17.30;;;1.98;;
49972;SDS011;65693;49.798;10.968;2023-04-01T08:11:43;15.88;;;2.20;;
49972;SDS011;65693;49.798;10.968;2023-04-01T08:14:24;17.27;;;1.58;;
49972;SDS011;65693;49.798;10.968;2023-04-01T08:17:00;10.70;;;1.30;;
49972;SDS011;65693;49.798;10.968;2023-04-01T08:19:32;11.35;;;1.52;;
49972;SDS011;65693;49.798;10.968;2023-04-01T08:22:12;14.00;;;1.60;;
49972;SDS011;65693;49.798;10.968;2023-04-01T08:24:44;16.42;;;1.50;;
49972;SDS011;65693;49.798;10.968;2023-04-01T08:27:15;11.95;;;1.65;;
49972;SDS011;65693;49.798;10.968;2023-04-01T08:29:46;14.73;;;1.20;;
49972;SDS011;65693;49.798;10.968;2023-04-01T08:32:18;14.13;;;1.38;;
49972;SDS011;65693;49.798;10.968;2023-04-01T08:34:51;16.13;;;1.83;;
49972;SDS011;65693;49.798;10.968;2023-04-01T08:37:28;11.07;;;1.48;;
49972;SDS011;65693;49.798;10.968;2023-04-01T08:39:58;11.55;;;3.58;;
49972;SDS011;65693;49.798;10.968;2023-04-01T08:42:42;12.98;;;1.20;;
49972;SDS011;65693;49.798;10.968;2023-04-01T08:45:31;11.90;;;1.55;;
49972;SDS011;65693;49.798;10.968;2023-04-01T08:48:22;12.38;;;1.67;;
49972;SDS011;65693;49.798;10.968;2023-04-01T08:51:13;12.48;;;1.50;;
49972;SDS011;65693;49.798;10.968;2023-04-01T08:56:48;7.60;;;1.10;;
49972;SDS011;65693;49.798;10.968;2023-04-01T08:59:28;17.65;;;1.77;;
49972;SDS011;65693;49.798;10.968;2023-04-01T09:05:16;9.95;;;1.25;;
49972;SDS011;65693;49.798;10.968;2023-04-01T09:07:55;8.55;;;1.20;;
49972;SDS011;65693;49.798;10.968;2023-04-01T09:10:32;7.22;;;1.23;;
49972;SDS011;65693;49.798;10.968;2023-04-01T09:13:22;7.03;;;1.17;;
49972;SDS011;65693;49.798;10.968;2023-04-01T09:16:03;8.38;;;1.20;;
49972;SDS011;65693;49.798;10.968;2023-04-01T09:18:49;8.48;;;1.60;;
49972;SDS011;65693;49.798;10.968;2023-04-01T09:21:31;7.00;;;1.00;;
49972;SDS011;65693;49.798;10.968;2023-04-01T09:24:14;7.22;;;1.15;;
49972;SDS011;65693;49.798;10.968;2023-04-01T09:27:04;4.68;;;1.00;;
49972;SDS011;65693;49.798;10.968;2023-04-01T09:29:50;6.97;;;1.25;;
49972;SDS011;65693;49.798;10.968;2023-04-01T09:35:39;4.78;;;0.80;;
49972;SDS011;65693;49.798;10.968;2023-04-01T09:38:20;3.53;;;0.90;;
49972;SDS011;65693;49.798;10.968;2023-04-01T09:40:51;7.03;;;0.90;;
49972;SDS011;65693;49.798;10.968;2023-04-01T09:43:22;6.97;;;0.90;;
49972;SDS011;65693;49.798;10.968;2023-04-01T09:46:01;3.92;;;0.77;;
49972;SDS011;65693;49.798;10.968;2023-04-01T09:48:55;4.35;;;0.70;;
49972;SDS011;65693;49.798;10.968;2023-04-01T09:51:40;3.95;;;0.80;;
49972;SDS011;65693;49.798;10.968;2023-04-01T09:54:30;1.77;;;0.63;;
49972;SDS011;65693;49.798;10.968;2023-04-01T09:57:17;2.90;;;0.98;;
49972;SDS011;65693;49.798;10.968;2023-04-01T10:03:05;2.35;;;0.50;;
49972;SDS011;65693;49.798;10.968;2023-04-01T10:06:12;7.18;;;0.93;;
49972;SDS011;65693;49.798;10.968;2023-04-01T10:09:05;2.88;;;0.63;;
49972;SDS011;65693;49.798;10.968;2023-04-01T10:12:00;2.58;;;0.68;;
49972;SDS011;65693;49.798;10.968;2023-04-01T10:27:35;1.80;;;0.73;;
49972;SDS011;65693;49.798;10.968;2023-04-01T10:30:23;2.15;;;1.02;;
49972;SDS011;65693;49.798;10.968;2023-04-01T10:33:39;4.43;;;0.80;;
49972;SDS011;65693;49.798;10.968;2023-04-01T10:36:46;5.13;;;0.80;;
49972;SDS011;65693;49.798;10.968;2023-04-01T10:39:34;3.97;;;0.88;;
49972;SDS011;65693;49.798;10.968;2023-04-01T10:42:20;2.13;;;0.63;;
49972;SDS011;65693;49.798;10.968;2023-04-01T10:51:14;3.58;;;0.73;;
49972;SDS011;65693;49.798;10.968;2023-04-01T10:53:49;1.85;;;0.70;;
49972;SDS011;65693;49.798;10.968;2023-04-01T10:56:42;3.47;;;1.25;;
49972;SDS011;65693;49.798;10.968;2023-04-01T10:59:21;3.00;;;0.60;;
49972;SDS011;65693;49.798;10.968;2023-04-01T11:05:19;2.00;;;0.70;;
49972;SDS011;65693;49.798;10.968;2023-04-01T11:11:28;4.25;;;0.75;;
49972;SDS011;65693;49.798;10.968;2023-04-01T11:14:27;3.45;;;0.70;;
49972;SDS011;65693;49.798;10.968;2023-04-01T11:20:29;2.20;;;0.82;;
49972;SDS011;65693;49.798;10.968;2023-04-01T11:23:18;2.63;;;0.70;;
49972;SDS011;65693;49.798;10.968;2023-04-01T11:25:56;1.70;;;0.70;;
49972;SDS011;65693;49.798;10.968;2023-04-01T11:31:30;3.85;;;0.60;;
49972;SDS011;65693;49.798;10.968;2023-04-01T11:34:13;2.13;;;0.60;;
49972;SDS011;65693;49.798;10.968;2023-04-01T11:36:54;3.38;;;0.98;;
49972;SDS011;65693;49.798;10.968;2023-04-01T11:39:30;1.40;;;0.60;;
49972;SDS011;65693;49.798;10.968;2023-04-01T11:42:09;1.00;;;0.50;;
49972;SDS011;65693;49.798;10.968;2023-04-01T11:44:45;1.90;;;0.60;;
49972;SDS011;65693;49.798;10.968;2023-04-01T11:47:28;2.85;;;0.60;;
49972;SDS011;65693;49.798;10.968;2023-04-01T11:50:15;2.15;;;0.70;;
49972;SDS011;65693;49.798;10.968;2023-04-01T11:52:55;2.92;;;0.82;;
49972;SDS011;65693;49.798;10.968;2023-04-01T11:55:32;0.77;;;0.60;;
49972;SDS011;65693;49.798;10.968;2023-04-01T11:58:18;2.40;;;0.50;;
49972;SDS011;65693;49.798;10.968;2023-04-01T12:00:57;2.65;;;0.55;;
49972;SDS011;65693;49.798;10.968;2023-04-01T12:03:47;1.23;;;0.60;;
49972;SDS011;65693;49.798;10.968;2023-04-01T12:06:29;1.40;;;0.57;;
49972;SDS011;65693;49.798;10.968;2023-04-01T12:09:07;1.40;;;0.63;;
49972;SDS011;65693;49.798;10.968;2023-04-01T12:11:44;1.50;;;0.65;;
49972;SDS011;65693;49.798;10.968;2023-04-01T12:14:19;1.38;;;0.57;;
49972;SDS011;65693;49.798;10.968;2023-04-01T12:16:55;2.92;;;0.60;;
49972;SDS011;65693;49.798;10.968;2023-04-01T12:19:30;3.42;;;0.57;;
49972;SDS011;65693;49.798;10.968;2023-04-01T12:22:27;1.65;;;0.50;;
49972;SDS011;65693;49.798;10.968;2023-04-01T12:28:06;1.20;;;0.60;;
49972;SDS011;65693;49.798;10.968;2023-04-01T12:30:46;2.08;;;0.70;;
49972;SDS011;65693;49.798;10.968;2023-04-01T12:33:39;1.40;;;0.55;;
49972;SDS011;65693;49.798;10.968;2023-04-01T12:36:17;2.33;;;0.50;;
49972;SDS011;65693;49.798;10.968;2023-04-01T12:38:55;2.78;;;0.70;;
49972;SDS011;65693;49.798;10.968;2023-04-01T12:41:45;1.60;;;0.70;;
49972;SDS011;65693;49.798;10.968;2023-04-01T12:44:23;1.50;;;0.70;;
49972;SDS011;65693;49.798;10.968;2023-04-01T12:47:05;1.88;;;0.68;;
49972;SDS011;65693;49.798;10.968;2023-04-01T12:52:45;2.58;;;0.60;;
49972;SDS011;65693;49.798;10.968;2023-04-01T12:55:35;0.95;;;0.50;;
49972;SDS011;65693;49.798;10.968;2023-04-01T13:01:19;2.80;;;0.70;;
49972;SDS011;65693;49.798;10.968;2023-04-01T13:04:13;1.95;;;0.50;;
49972;SDS011;65693;49.798;10.968;2023-04-01T13:06:58;1.48;;;0.60;;
49972;SDS011;65693;49.798;10.968;2023-04-01T13:09:40;1.90;;;0.52;;
49972;SDS011;65693;49.798;10.968;2023-04-01T13:12:21;1.13;;;0.55;;
49972;SDS011;65693;49.798;10.968;2023-04-01T13:15:07;1.27;;;0.60;;
49972;SDS011;65693;49.798;10.968;2023-04-01T13:17:44;0.85;;;0.50;;
49972;SDS011;65693;49.798;10.968;2023-04-01T13:20:20;1.15;;;0.60;;
49972;SDS011;65693;49.798;10.968;2023-04-01T13:22:58;2.30;;;0.60;;
49972;SDS011;65693;49.798;10.968;2023-04-01T13:25:36;1.80;;;0.68;;
49972;SDS011;65693;49.798;10.968;2023-04-01T13:28:10;0.77;;;0.50;;
49972;SDS011;65693;49.798;10.968;2023-04-01T13:30:44;1.23;;;0.50;;
49972;SDS011;65693;49.798;10.968;2023-04-01T13:33:16;1.95;;;0.70;;
49972;SDS011;65693;49.798;10.968;2023-04-01T13:35:57;0.63;;;0.50;;
49972;SDS011;65693;49.798;10.968;2023-04-01T13:38:46;2.08;;;0.70;;
49972;SDS011;65693;49.798;10.968;2023-04-01T13:41:35;1.25;;;0.60;;
49972;SDS011;65693;49.798;10.968;2023-04-01T13:44:13;1.30;;;0.50;;
49972;SDS011;65693;49.798;10.968;2023-04-01T13:46:52;1.67;;;0.55;;
49972;SDS011;65693;49.798;10.968;2023-04-01T13:49:31;2.08;;;0.60;;
49972;SDS011;65693;49.798;10.968;2023-04-01T13:52:32;0.43;;;0.40;;
49972;SDS011;65693;49.798;10.968;2023-04-01T13:55:35;1.25;;;0.63;;
49972;SDS011;65693;49.798;10.968;2023-04-01T13:58:29;1.10;;;0.50;;
49972;SDS011;65693;49.798;10.968;2023-04-01T14:01:05;1.15;;;0.52;;
49972;SDS011;65693;49.798;10.968;2023-04-01T14:03:40;1.08;;;0.50;;
49972;SDS011;65693;49.798;10.968;2023-04-01T14:06:29;0.93;;;0.40;;
49972;SDS011;65693;49.798;10.968;2023-04-01T14:09:06;0.85;;;0.50;;
49972;SDS011;65693;49.798;10.968;2023-04-01T14:11:44;0.50;;;0.50;;
49972;SDS011;65693;49.798;10.968;2023-04-01T14:14:21;0.98;;;0.50;;
49972;SDS011;65693;49.798;10.968;2023-04-01T14:17:02;0.60;;;0.40;;
49972;SDS011;65693;49.798;10.968;2023-04-01T14:22:41;1.33;;;0.60;;
49972;SDS011;65693;49.798;10.968;2023-04-01T14:25:29;1.23;;;0.57;;
49972;SDS011;65693;49.798;10.968;2023-04-01T14:28:11;0.88;;;0.60;;
49972;SDS011;65693;49.798;10.968;2023-04-01T14:30:51;0.50;;;0.50;;
49972;SDS011;65693;49.798;10.968;2023-04-01T14:33:31;0.95;;;0.50;;
49972;SDS011;65693;49.798;10.968;2023-04-01T14:36:24;0.75;;;0.47;;
49972;SDS011;65693;49.798;10.968;2023-04-01T14:39:07;0.52;;;0.50;;
49972;SDS011;65693;49.798;10.968;2023-04-01T14:41:46;0.68;;;0.47;;
49972;SDS011;65693;49.798;10.968;2023-04-01T14:44:18;1.42;;;1.13;;
49972;SDS011;65693;49.798;10.968;2023-04-01T14:47:04;1.05;;;0.52;;
49972;SDS011;65693;49.798;10.968;2023-04-01T14:49:44;1.23;;;0.60;;
49972;SDS011;65693;49.798;10.968;2023-04-01T14:52:15;0.85;;;0.50;;
49972;SDS011;65693;49.798;10.968;2023-04-01T14:54:48;0.98;;;0.68;;
49972;SDS011;65693;49.798;10.968;2023-04-01T14:57:20;1.15;;;0.45;;
49972;SDS011;65693;49.798;10.968;2023-04-01T14:59:51;0.50;;;0.50;;
49972;SDS011;65693;49.798;10.968;2023-04-01T15:02:38;1.35;;;0.65;;
49972;SDS011;65693;49.798;10.968;2023-04-01T15:05:21;2.25;;;0.60;;
49972;SDS011;65693;49.798;10.968;2023-04-01T15:08:01;0.65;;;0.40;;
49972;SDS011;65693;49.798;10.968;2023-04-01T15:10:40;1.05;;;0.55;;
49972;SDS011;65693;49.798;10.968;2023-04-01T15:13:17;1.40;;;0.57;;
49972;SDS011;65693;49.798;10.968;2023-04-01T15:16:02;1.15;;;0.60;;
49972;SDS011;65693;49.798;10.968;2023-04-01T15:18:39;1.08;;;0.50;;
49972;SDS011;65693;49.798;10.968;2023-04-01T15:21:15;2.30;;;0.60;;
49972;SDS011;65693;49.798;10.968;2023-04-01T15:23:54;0.75;;;0.50;;
49972;SDS011;65693;49.798;10.968;2023-04-01T15:29:30;0.70;;;0.50;;
49972;SDS011;65693;49.798;10.968;2023-04-01T15:32:08;1.75;;;0.57;;
49972;SDS011;65693;49.798;10.968;2023-04-01T15:34:43;1.00;;;0.43;;
49972;SDS011;65693;49.798;10.968;2023-04-01T15:37:21;1.05;;;0.55;;
49972;SDS011;65693;49.798;10.968;2023-04-01T15:40:02;1.00;;;0.45;;
49972;SDS011;65693;49.798;10.968;2023-04-01T15:42:45;1.08;;;0.60;;
49972;SDS011;65693;49.798;10.968;2023-04-01T15:45:31;1.67;;;0.70;;
49972;SDS011;65693;49.798;10.968;2023-04-01T15:48:13;1.23;;;0.52;;
49972;SDS011;65693;49.798;10.968;2023-04-01T15:50:59;0.85;;;0.60;;
49972;SDS011;65693;49.798;10.968;2023-04-01T15:53:49;0.68;;;0.50;;
49972;SDS011;65693;49.798;10.968;2023-04-01T15:56:27;0.70;;;0.50;;
49972;SDS011;65693;49.798;10.968;2023-04-01T15:59:09;0.90;;;0.50;;
49972;SDS011;65693;49.798;10.968;2023-04-01T16:01:47;0.57;;;0.50;;
49972;SDS011;65693;49.798;10.968;2023-04-01T16:04:25;0.75;;;0.50;;
49972;SDS011;65693;49.798;10.968;2023-04-01T16:07:10;1.48;;;0.60;;
49972;SDS011;65693;49.798;10.968;2023-04-01T16:09:56;1.15;;;0.50;;
49972;SDS011;65693;49.798;10.968;2023-04-01T16:12:36;0.65;;;0.50;;
49972;SDS011;65693;49.798;10.968;2023-04-01T16:15:15;1.17;;;0.52;;
49972;SDS011;65693;49.798;10.968;2023-04-01T16:17:59;1.75;;;0.68;;
49972;SDS011;65693;49.798;10.968;2023-04-01T16:20:42;1.35;;;0.55;;
49972;SDS011;65693;49.798;10.968;2023-04-01T16:23:13;1.30;;;0.70;;
49972;SDS011;65693;49.798;10.968;2023-04-01T16:25:49;1.38;;;0.75;;
49972;SDS011;65693;49.798;10.968;2023-04-01T16:28:25;1.85;;;0.60;;
49972;SDS011;65693;49.798;10.968;2023-04-01T16:30:57;1.85;;;0.60;;